sensor_id;sensor_type;location;lat;lon;timestamp;P1;durP1;ratioP1;P2;durP2;ratioP2
65053;SDS011;51639;47.828;35.038;2022-11-15T00:12:40;20.37;;;11.57;;
65053;SDS011;51639;47.828;35.038;2022-11-15T00:27:42;20.47;;;11.30;;
65053;SDS011;51639;47.828;35.038;2022-11-15T00:42:44;21.60;;;11.10;;
65053;SDS011;51639;47.828;35.038;2022-11-15T00:57:47;24.23;;;11.10;;
65053;SDS011;51639;47.828;35.038;2022-11-15T01:12:49;19.90;;;10.43;;
65053;SDS011;51639;47.828;35.038;2022-11-15T01:27:51;21.63;;;10.93;;
65053;SDS011;51639;47.828;35.038;2022-11-15T01:42:53;22.23;;;9.97;;
65053;SDS011;51639;47.828;35.038;2022-11-15T01:57:56;22.93;;;11.43;;
65053;SDS011;51639;47.828;35.038;2022-11-15T02:13:03;31.77;;;12.10;;
65053;SDS011;51639;47.828;35.038;2022-11-15T02:43:50;26.60;;;10.83;;
65053;SDS011;51639;47.828;35.038;2022-11-15T03:14:39;18.97;;;11.03;;
65053;SDS011;51639;47.828;35.038;2022-11-15T03:30:06;17.80;;;9.30;;
65053;SDS011;51639;47.828;35.038;2022-11-15T03:45:17;22.47;;;10.93;;
65053;SDS011;51639;47.828;35.038;2022-11-15T04:00:24;23.37;;;11.03;;
65053;SDS011;51639;47.828;35.038;2022-11-15T04:15:26;25.43;;;11.90;;
65053;SDS011;51639;47.828;35.038;2022-11-15T04:30:28;29.57;;;14.53;;
65053;SDS011;51639;47.828;35.038;2022-11-15T04:45:30;28.30;;;13.87;;
65053;SDS011;51639;47.828;35.038;2022-11-15T05:00:32;35.47;;;17.87;;
65053;SDS011;51639;47.828;35.038;2022-11-15T05:15:35;27.57;;;19.73;;
65053;SDS011;51639;47.828;35.038;2022-11-15T05:30:38;26.23;;;17.93;;
65053;SDS011;51639;47.828;35.038;2022-11-15T05:45:40;25.83;;;15.70;;
65053;SDS011;51639;47.828;35.038;2022-11-15T06:00:41;26.50;;;14.67;;
65053;SDS011;51639;47.828;35.038;2022-11-15T06:15:44;24.47;;;15.30;;
65053;SDS011;51639;47.828;35.038;2022-11-15T06:30:46;27.77;;;14.17;;
65053;SDS011;51639;47.828;35.038;2022-11-15T06:45:53;18.40;;;12.07;;
65053;SDS011;51639;47.828;35.038;2022-11-15T07:00:59;16.90;;;8.20;;
65053;SDS011;51639;47.828;35.038;2022-11-15T07:16:06;12.43;;;6.73;;
65053;SDS011;51639;47.828;35.038;2022-11-15T07:31:10;15.50;;;7.10;;
65053;SDS011;51639;47.828;35.038;2022-11-15T07:46:12;13.53;;;7.70;;
65053;SDS011;51639;47.828;35.038;2022-11-15T08:01:14;25.93;;;10.93;;
65053;SDS011;51639;47.828;35.038;2022-11-15T08:16:16;11.97;;;6.63;;
65053;SDS011;51639;47.828;35.038;2022-11-15T08:31:18;24.50;;;12.20;;
65053;SDS011;51639;47.828;35.038;2022-11-15T08:46:20;9.87;;;6.23;;
65053;SDS011;51639;47.828;35.038;2022-11-15T09:01:22;10.03;;;4.80;;
65053;SDS011;51639;47.828;35.038;2022-11-15T09:16:24;7.17;;;4.20;;
65053;SDS011;51639;47.828;35.038;2022-11-15T09:31:28;10.33;;;5.30;;
65053;SDS011;51639;47.828;35.038;2022-11-15T10:32:18;4.17;;;2.37;;
65053;SDS011;51639;47.828;35.038;2022-11-15T10:47:29;3.50;;;1.90;;
65053;SDS011;51639;47.828;35.038;2022-11-15T11:02:40;3.40;;;2.23;;
65053;SDS011;51639;47.828;35.038;2022-11-15T11:18:01;3.87;;;2.17;;
65053;SDS011;51639;47.828;35.038;2022-11-15T11:48:38;3.10;;;2.30;;
65053;SDS011;51639;47.828;35.038;2022-11-15T12:04:05;4.20;;;2.30;;
65053;SDS011;51639;47.828;35.038;2022-11-15T12:19:16;4.00;;;2.23;;
65053;SDS011;51639;47.828;35.038;2022-11-15T13:04:28;6.13;;;2.83;;
65053;SDS011;51639;47.828;35.038;2022-11-15T13:19:31;7.50;;;4.53;;
65053;SDS011;51639;47.828;35.038;2022-11-15T13:34:34;4.07;;;3.00;;
65053;SDS011;51639;47.828;35.038;2022-11-15T13:49:53;6.07;;;2.90;;
65053;SDS011;51639;47.828;35.038;2022-11-15T14:05:03;5.87;;;2.60;;
65053;SDS011;51639;47.828;35.038;2022-11-15T14:20:27;6.97;;;3.57;;
65053;SDS011;51639;47.828;35.038;2022-11-15T14:35:33;6.20;;;3.53;;
65053;SDS011;51639;47.828;35.038;2022-11-15T14:50:39;6.73;;;3.30;;
65053;SDS011;51639;47.828;35.038;2022-11-15T15:05:42;4.80;;;2.97;;
65053;SDS011;51639;47.828;35.038;2022-11-15T15:20:53;7.27;;;3.70;;
65053;SDS011;51639;47.828;35.038;2022-11-15T15:35:58;10.30;;;4.93;;
65053;SDS011;51639;47.828;35.038;2022-11-15T15:51:00;13.90;;;6.77;;
65053;SDS011;51639;47.828;35.038;2022-11-15T16:36:50;13.43;;;6.17;;
65053;SDS011;51639;47.828;35.038;2022-11-15T16:51:52;13.53;;;6.97;;
65053;SDS011;51639;47.828;35.038;2022-11-15T17:06:54;7.57;;;4.73;;
65053;SDS011;51639;47.828;35.038;2022-11-15T17:21:56;13.47;;;6.53;;
65053;SDS011;51639;47.828;35.038;2022-11-15T17:36:58;8.57;;;5.20;;
65053;SDS011;51639;47.828;35.038;2022-11-15T17:52:18;10.67;;;6.20;;
65053;SDS011;51639;47.828;35.038;2022-11-15T18:07:20;14.13;;;7.07;;
65053;SDS011;51639;47.828;35.038;2022-11-15T18:22:22;10.37;;;5.83;;
65053;SDS011;51639;47.828;35.038;2022-11-15T18:37:24;11.23;;;5.50;;
65053;SDS011;51639;47.828;35.038;2022-11-15T18:52:26;11.10;;;4.63;;
65053;SDS011;51639;47.828;35.038;2022-11-15T19:07:30;7.30;;;3.97;;
65053;SDS011;51639;47.828;35.038;2022-11-15T19:22:32;9.53;;;4.87;;
65053;SDS011;51639;47.828;35.038;2022-11-15T19:37:34;10.80;;;5.43;;
65053;SDS011;51639;47.828;35.038;2022-11-15T19:52:36;9.97;;;5.40;;
65053;SDS011;51639;47.828;35.038;2022-11-15T20:07:38;7.40;;;4.87;;
65053;SDS011;51639;47.828;35.038;2022-11-15T20:22:43;8.47;;;5.07;;
65053;SDS011;51639;47.828;35.038;2022-11-15T20:37:48;9.03;;;4.90;;
65053;SDS011;51639;47.828;35.038;2022-11-15T20:52:50;9.67;;;5.33;;
65053;SDS011;51639;47.828;35.038;2022-11-15T21:07:53;11.53;;;6.80;;
65053;SDS011;51639;47.828;35.038;2022-11-15T21:22:55;14.97;;;5.30;;
65053;SDS011;51639;47.828;35.038;2022-11-15T21:37:57;5.17;;;3.73;;
65053;SDS011;51639;47.828;35.038;2022-11-15T21:52:59;16.83;;;6.97;;
65053;SDS011;51639;47.828;35.038;2022-11-15T22:08:01;9.97;;;5.50;;
65053;SDS011;51639;47.828;35.038;2022-11-15T22:23:03;10.43;;;6.17;;
65053;SDS011;51639;47.828;35.038;2022-11-15T22:38:06;12.17;;;5.63;;
65053;SDS011;51639;47.828;35.038;2022-11-15T22:53:08;11.70;;;7.47;;
65053;SDS011;51639;47.828;35.038;2022-11-15T23:08:10;11.80;;;6.40;;
65053;SDS011;51639;47.828;35.038;2022-11-15T23:23:13;13.77;;;8.30;;
65053;SDS011;51639;47.828;35.038;2022-11-15T23:38:15;12.87;;;6.97;;
65053;SDS011;51639;47.828;35.038;2022-11-15T23:53:17;13.53;;;6.90;;
